createdAt,value
2023-01-26T00:01:59.014Z,393.19
2023-01-26T00:06:58.924Z,392.05
2023-01-26T00:11:58.881Z,389.33
2023-01-26T00:16:58.785Z,384.67
2023-01-26T00:21:58.723Z,382.05
2023-01-26T00:26:58.662Z,381.84
2023-01-26T00:31:58.614Z,383.36
2023-01-26T00:36:58.526Z,380.97
2023-01-26T00:41:58.499Z,380.76
2023-01-26T00:46:58.421Z,380.33
2023-01-26T00:51:58.355Z,378.20
2023-01-26T00:56:58.294Z,374.71
2023-01-26T01:01:58.286Z,374.71
2023-01-26T01:07:23.755Z,371.77
2023-01-26T01:12:16.172Z,373.86
2023-01-26T01:17:16.129Z,372.18
2023-01-26T01:22:16.035Z,371.35
2023-01-26T01:27:16.023Z,371.77
2023-01-26T01:32:15.910Z,371.35
2023-01-26T01:37:15.869Z,373.86
2023-01-26T01:42:15.769Z,374.71
2023-01-26T01:47:15.745Z,373.86
2023-01-26T01:52:15.653Z,374.28
2023-01-26T01:57:15.678Z,375.98
2023-01-26T02:02:15.556Z,378.83
2023-01-26T02:07:15.475Z,374.71
2023-01-26T02:12:15.406Z,375.98
2023-01-26T02:17:15.350Z,373.02
2023-01-26T02:22:15.262Z,373.02
2023-01-26T02:27:15.237Z,372.60
2023-01-26T02:32:15.153Z,373.02
2023-01-26T02:37:15.144Z,369.28
2023-01-26T02:42:14.999Z,368.87
2023-01-26T02:47:14.983Z,370.11
2023-01-26T02:52:14.869Z,368.05
2023-01-26T02:57:14.840Z,365.22
2023-01-26T03:02:14.772Z,366.83
2023-01-26T03:07:14.699Z,364.82
2023-01-26T03:12:14.640Z,365.22
2023-01-26T03:17:14.581Z,365.22
2023-01-26T03:22:14.494Z,364.82
2023-01-26T03:27:14.478Z,363.62
2023-01-26T03:32:14.393Z,365.22
2023-01-26T03:37:14.307Z,364.02
2023-01-26T03:42:14.247Z,364.82
2023-01-26T03:47:14.221Z,364.42
2023-01-26T03:52:14.113Z,364.82
2023-01-26T03:57:14.110Z,364.82
2023-01-26T04:02:13.990Z,362.82
2023-01-26T04:07:13.957Z,364.82
2023-01-26T04:12:13.866Z,364.42
2023-01-26T04:17:13.797Z,363.22
2023-01-26T04:22:13.749Z,363.62
2023-01-26T04:27:13.701Z,362.82
2023-01-26T04:32:13.653Z,363.22
2023-01-26T04:37:13.580Z,363.62
2023-01-26T04:42:13.501Z,363.62
2023-01-26T04:47:13.420Z,362.43
2023-01-26T04:52:13.355Z,365.62
2023-01-26T04:57:13.327Z,366.43
2023-01-26T05:02:13.217Z,366.43
2023-01-26T05:07:13.194Z,365.62
2023-01-26T05:12:13.099Z,368.05
2023-01-26T05:17:24.841Z,367.65
2023-01-26T05:22:16.410Z,367.24
2023-01-26T05:27:16.341Z,367.24
2023-01-26T05:32:16.309Z,368.46
2023-01-26T05:37:16.269Z,369.28
2023-01-26T05:42:16.160Z,370.52
2023-01-26T05:47:16.085Z,369.70
2023-01-26T05:52:16.047Z,369.70
2023-01-26T05:57:15.969Z,371.77
2023-01-26T06:02:16.141Z,368.87
2023-01-26T06:07:15.810Z,366.02
2023-01-26T06:12:15.788Z,370.11
2023-01-26T06:17:15.738Z,369.28
2023-01-26T06:22:15.642Z,370.52
2023-01-26T06:27:15.569Z,369.70
2023-01-26T06:32:15.518Z,368.87
2023-01-26T06:37:15.442Z,370.52
2023-01-26T06:42:15.400Z,369.70
2023-01-26T06:47:15.319Z,368.87
2023-01-26T06:52:15.250Z,368.05
2023-01-26T06:57:15.205Z,369.70
2023-01-26T07:02:15.169Z,370.52
2023-01-26T07:07:15.060Z,369.70
2023-01-26T07:12:15.023Z,370.52
2023-01-26T07:17:14.939Z,370.52
2023-01-26T07:22:14.871Z,369.70
2023-01-26T07:27:14.809Z,369.70
2023-01-26T07:32:14.767Z,367.24
2023-01-26T07:37:14.660Z,367.65
2023-01-26T07:42:14.644Z,366.83
2023-01-26T07:47:14.568Z,367.24
2023-01-26T07:52:14.497Z,367.24
2023-01-26T07:57:14.439Z,366.02
2023-01-26T08:02:14.358Z,365.62
2023-01-26T08:07:14.299Z,367.65
2023-01-26T08:12:14.251Z,367.24
2023-01-26T08:17:14.154Z,364.82
2023-01-26T08:22:14.139Z,366.43
2023-01-26T08:27:14.049Z,365.62
2023-01-26T08:32:13.987Z,366.43
2023-01-26T08:37:13.916Z,363.22
2023-01-26T08:42:13.879Z,364.82
2023-01-26T08:47:13.786Z,362.82
2023-01-26T08:52:13.754Z,361.24
2023-01-26T08:57:13.684Z,361.64
2023-01-26T09:02:13.686Z,359.29
2023-01-26T09:07:13.616Z,360.07
2023-01-26T09:12:13.506Z,359.68
2023-01-26T09:17:13.430Z,358.12
2023-01-26T09:22:13.397Z,357.74
2023-01-26T09:27:13.316Z,358.51
2023-01-26T09:32:13.218Z,356.97
2023-01-26T09:37:13.186Z,358.12
2023-01-26T09:42:13.110Z,357.74
2023-01-26T09:47:13.015Z,356.58
2023-01-26T09:52:12.983Z,356.20
2023-01-26T09:57:12.899Z,353.55
2023-01-26T10:02:12.851Z,353.55
2023-01-26T10:07:12.767Z,355.06
2023-01-26T10:12:12.732Z,352.05
2023-01-26T10:17:12.629Z,353.92
2023-01-26T10:22:12.594Z,349.82
2023-01-26T10:27:12.524Z,349.45
2023-01-26T10:32:12.458Z,349.45
2023-01-26T10:37:12.401Z,345.81
2023-01-26T10:42:12.343Z,345.81
2023-01-26T10:47:12.253Z,346.17
2023-01-26T10:52:12.212Z,345.09
2023-01-26T10:57:12.128Z,343.30
2023-01-26T11:02:12.051Z,344.01
2023-01-26T11:07:11.993Z,344.37
2023-01-26T11:12:11.971Z,344.73
2023-01-26T11:17:11.864Z,344.37
2023-01-26T11:22:11.829Z,342.95
2023-01-26T11:27:11.733Z,342.24
2023-01-26T11:32:11.679Z,344.37
2023-01-26T11:37:11.625Z,341.89
2023-01-26T11:42:11.578Z,343.30
2023-01-26T11:47:11.473Z,341.18
2023-01-26T11:52:11.451Z,341.54
2023-01-26T11:57:11.376Z,339.79
2023-01-26T12:02:11.326Z,340.48
2023-01-26T12:07:11.258Z,338.06
2023-01-26T12:12:11.192Z,339.44
2023-01-26T12:17:17.983Z,339.44
2023-01-26T12:22:12.107Z,340.14
2023-01-26T12:27:10.973Z,338.40
2023-01-26T12:32:10.938Z,337.03
2023-01-26T12:37:10.820Z,337.03
2023-01-26T12:42:10.830Z,336.68
2023-01-26T12:47:10.891Z,334.65
2023-01-26T12:52:10.656Z,335.32
2023-01-26T12:57:10.588Z,332.30
2023-01-26T13:02:10.608Z,332.63
2023-01-26T13:07:10.453Z,332.63
2023-01-26T13:12:10.413Z,333.30
2023-01-26T13:17:10.356Z,330.64
2023-01-26T13:22:10.267Z,330.32
2023-01-26T13:27:10.214Z,330.32
2023-01-26T13:32:10.164Z,330.64
2023-01-26T13:37:10.157Z,329.66
2023-01-26T13:42:10.034Z,329.66
2023-01-26T13:47:09.977Z,328.68
2023-01-26T13:52:09.903Z,327.06
2023-01-26T13:57:09.825Z,328.03
2023-01-26T14:02:09.857Z,326.74
2023-01-26T14:07:09.691Z,327.06
2023-01-26T14:12:09.670Z,326.10
2023-01-26T14:17:09.582Z,327.06
2023-01-26T14:22:09.512Z,326.74
2023-01-26T14:27:09.426Z,325.77
2023-01-26T14:32:09.375Z,325.46
2023-01-26T14:37:09.309Z,327.38
2023-01-26T14:42:09.288Z,326.42
2023-01-26T14:47:09.181Z,326.42
2023-01-26T14:52:09.149Z,326.10
2023-01-26T14:57:09.715Z,328.35
2023-01-26T15:02:09.021Z,327.38
2023-01-26T15:07:09.052Z,329.33
2023-01-26T15:12:08.894Z,328.35
2023-01-26T15:17:08.782Z,329.01
2023-01-26T15:22:08.772Z,328.35
2023-01-26T15:27:08.669Z,327.71
2023-01-26T15:32:08.615Z,329.66
2023-01-26T15:37:08.647Z,328.35
2023-01-26T15:42:08.506Z,328.35
2023-01-26T15:47:08.401Z,329.33
2023-01-26T15:52:08.347Z,328.68
2023-01-26T15:57:08.309Z,329.33
2023-01-26T16:02:08.310Z,329.33
2023-01-26T16:07:08.189Z,327.38
2023-01-26T16:12:08.123Z,328.03
2023-01-26T16:17:08.011Z,327.71
2023-01-26T16:22:07.985Z,329.99
2023-01-26T16:27:07.906Z,329.33
2023-01-26T16:32:07.851Z,328.68
2023-01-26T16:37:07.784Z,328.68
2023-01-26T16:42:07.738Z,330.97
2023-01-26T16:47:07.638Z,330.97
2023-01-26T16:52:07.646Z,331.30
2023-01-26T16:57:07.519Z,329.99
2023-01-26T17:02:07.460Z,331.30
2023-01-26T17:07:07.411Z,329.99
2023-01-26T17:12:07.339Z,329.33
2023-01-26T17:17:07.260Z,329.01
2023-01-26T17:22:07.230Z,329.33
2023-01-26T17:27:07.148Z,328.68
2023-01-26T17:32:07.074Z,331.30
2023-01-26T17:37:07.012Z,327.71
2023-01-26T17:42:06.968Z,331.97
2023-01-26T17:47:06.862Z,328.68
2023-01-26T17:52:06.857Z,328.68
2023-01-26T17:57:06.776Z,328.03
2023-01-26T18:02:06.716Z,327.38
2023-01-26T18:07:06.632Z,327.71
2023-01-26T18:12:06.594Z,329.01
2023-01-26T18:17:06.480Z,328.03
2023-01-26T18:22:06.452Z,329.66
2023-01-26T18:27:06.381Z,328.03
2023-01-26T18:32:06.408Z,328.68
2023-01-26T18:37:06.661Z,328.03
2023-01-26T18:42:06.193Z,329.01
2023-01-26T18:47:06.134Z,326.42
2023-01-26T18:52:06.062Z,328.03
2023-01-26T18:57:06.004Z,327.06
2023-01-26T19:02:06.003Z,326.42
2023-01-26T19:07:05.844Z,325.46
2023-01-26T19:12:05.822Z,325.46
2023-01-26T19:17:05.735Z,323.55
2023-01-26T19:22:05.659Z,325.77
2023-01-26T19:27:05.636Z,323.55
2023-01-26T19:32:05.571Z,324.82
2023-01-26T19:37:05.475Z,322.29
2023-01-26T19:42:05.404Z,322.29
2023-01-26T19:47:05.371Z,321.98
2023-01-26T19:52:05.295Z,323.24
2023-01-26T19:57:05.255Z,320.43
2023-01-26T20:02:05.172Z,321.36
2023-01-26T20:07:05.157Z,321.67
2023-01-26T20:12:05.034Z,322.61
2023-01-26T20:17:04.993Z,321.36
2023-01-26T20:22:04.877Z,320.74
2023-01-26T20:27:04.856Z,321.36
2023-01-26T20:32:04.866Z,321.67
2023-01-26T20:37:04.711Z,322.29
2023-01-26T20:42:04.664Z,321.05
2023-01-26T20:47:04.599Z,320.12
2023-01-26T20:52:04.503Z,322.29
2023-01-26T20:57:04.481Z,321.67
2023-01-26T21:02:04.415Z,320.12
2023-01-26T21:07:04.354Z,322.61
2023-01-26T21:12:04.275Z,319.50
2023-01-26T21:17:04.186Z,320.74
2023-01-26T21:22:04.149Z,321.67
2023-01-26T21:27:04.091Z,321.05
2023-01-26T21:32:03.996Z,320.12
2023-01-26T21:37:03.949Z,320.43
2023-01-26T21:42:03.912Z,320.43
2023-01-26T21:47:03.924Z,320.12
2023-01-26T21:52:03.734Z,318.89
2023-01-26T21:57:03.698Z,321.67
2023-01-26T22:02:03.676Z,319.81
2023-01-26T22:07:03.550Z,321.05
2023-01-26T22:12:03.503Z,320.43
2023-01-26T22:17:03.432Z,322.29
2023-01-26T22:22:03.363Z,319.81
2023-01-26T22:27:03.304Z,319.81
2023-01-26T22:32:03.256Z,320.43
2023-01-26T22:37:03.200Z,319.81
2023-01-26T22:42:03.119Z,319.50
2023-01-26T22:47:03.063Z,320.74
2023-01-26T22:52:02.976Z,320.74
2023-01-26T22:57:02.945Z,321.05
2023-01-26T23:02:02.924Z,321.36
2023-01-26T23:07:02.808Z,321.36
2023-01-26T23:12:02.752Z,321.67
2023-01-26T23:17:02.661Z,321.67
2023-01-26T23:22:02.614Z,320.43
2023-01-26T23:27:02.559Z,320.43
2023-01-26T23:32:02.517Z,318.89
2023-01-26T23:37:02.416Z,321.67
2023-01-26T23:42:02.375Z,319.81
2023-01-26T23:47:02.436Z,320.74
2023-01-26T23:52:02.199Z,320.12
2023-01-26T23:57:02.184Z,320.43
